Time;durP1;ratioP1;P1;durP2;ratioP2;P2;SDS_P1;SDS_P2;PMS_P1;PMS_P2;Temp;Humidity;BMP_temperature;BMP_pressure;BME280_temperature;BME280_humidity;BME280_pressure;Samples;Min_cycle;Max_cycle;Signal;HPM_P1;HPM_P2
2022/09/24 00:02:02;;;;;;;;;12.33;9.67;;;;;21.86;46.36;100974.08;110426;1264;12996;-61
2022/09/24 00:04:30;;;;;;;;;10.00;9.00;;;;;21.86;46.34;100972.77;110487;1264;13158;-59
2022/09/24 00:06:57;;;;;;;;;11.00;10.33;;;;;21.85;46.39;100969.41;110450;1264;12977;-58
2022/09/24 00:09:25;;;;;;;;;9.33;9.33;;;;;21.85;46.25;100966.38;110469;1263;17229;-56
2022/09/24 00:11:52;;;;;;;;;10.67;9.67;;;;;21.85;46.31;100965.62;110438;1262;13110;-57
2022/09/24 00:14:20;;;;;;;;;14.33;12.33;;;;;21.86;46.33;100961.93;110459;1265;13122;-57
2022/09/24 00:16:47;;;;;;;;;10.67;9.33;;;;;21.86;46.38;100953.23;110434;1264;14611;-57
2022/09/24 00:19:15;;;;;;;;;11.67;10.67;;;;;21.85;46.42;100954.06;110614;1264;12344;-57
2022/09/24 00:21:42;;;;;;;;;10.67;10.67;;;;;21.85;46.38;100954.91;110435;1263;13236;-56
2022/09/24 00:24:10;;;;;;;;;10.00;9.00;;;;;21.85;46.32;100950.75;110423;1264;12772;-61
2022/09/24 00:26:49;;;;;;;;;12.00;11.00;;;;;21.85;46.32;100952.73;110442;1264;12915;-57
2022/09/24 00:29:17;;;;;;;;;12.33;9.33;;;;;21.85;46.38;100946.94;110451;1265;13387;-59
2022/09/24 00:31:44;;;;;;;;;11.00;11.00;;;;;21.86;46.27;100949.17;110472;1263;15195;-59
2022/09/24 00:34:11;;;;;;;;;10.33;10.00;;;;;21.84;46.34;100943.56;110500;1264;12745;-60
2022/09/24 00:36:39;;;;;;;;;8.33;7.00;;;;;21.83;46.51;100938.93;110446;1263;13590;-59
2022/09/24 00:39:06;;;;;;;;;11.00;10.00;;;;;21.84;46.64;100937.73;110453;1264;13457;-57
2022/09/24 00:41:34;;;;;;;;;9.00;7.00;;;;;21.84;46.27;100937.14;110439;1264;13528;-58
2022/09/24 00:44:01;;;;;;;;;10.00;9.00;;;;;21.84;46.37;100930.17;110388;1264;12392;-58
2022/09/24 00:46:28;;;;;;;;;9.00;8.33;;;;;21.84;46.20;100929.63;110479;1264;13214;-59
2022/09/24 00:48:56;;;;;;;;;9.67;9.00;;;;;21.84;46.40;100929.55;110325;1262;13297;-59
2022/09/24 00:51:23;;;;;;;;;9.50;9.00;;;;;21.82;46.48;100923.04;110439;1264;13051;-57
2022/09/24 00:53:51;;;;;;;;;10.33;10.00;;;;;21.83;46.44;100920.84;110413;1264;12969;-56
2022/09/24 00:56:18;;;;;;;;;14.67;11.00;;;;;21.84;46.45;100925.02;110419;1265;13089;-57
2022/09/24 00:58:46;;;;;;;;;11.00;11.00;;;;;21.84;46.42;100919.84;110478;1264;13419;-57
2022/09/24 01:01:14;;;;;;;;;10.00;9.00;;;;;21.83;46.63;100915.38;110454;1262;13196;-54
2022/09/24 01:03:41;;;;;;;;;11.00;10.00;;;;;21.83;46.60;100915.16;110437;1264;14528;-58
2022/09/24 01:06:10;;;;;;;;;13.00;11.00;;;;;21.82;46.24;100912.90;110466;1264;14321;-56
2022/09/24 01:08:37;;;;;;;;;10.00;10.00;;;;;21.82;46.24;100912.89;110434;1262;14600;-58
2022/09/24 01:11:04;;;;;;;;;13.00;11.00;;;;;21.81;46.49;100911.14;110371;1264;14052;-58
2022/09/24 01:13:32;;;;;;;;;10.00;9.00;;;;;21.82;46.29;100912.58;110502;1264;13206;-58
2022/09/24 01:15:59;;;;;;;;;10.00;10.00;;;;;21.82;46.43;100906.35;110390;1264;14398;-59
2022/09/24 01:18:27;;;;;;;;;12.33;9.67;;;;;21.82;46.21;100909.60;110447;1264;14297;-59
2022/09/24 01:20:54;;;;;;;;;10.00;9.33;;;;;21.82;46.28;100905.95;110441;1264;14329;-58
2022/09/24 01:23:22;;;;;;;;;11.67;11.00;;;;;21.82;46.42;100905.23;110436;1264;13988;-60
2022/09/24 01:25:50;;;;;;;;;9.00;9.00;;;;;21.83;46.22;100900.27;110418;1264;13743;-53
2022/09/24 01:28:18;;;;;;;;;10.67;10.00;;;;;21.84;46.04;100897.73;110440;1264;14667;-58
2022/09/24 01:30:46;;;;;;;;;10.00;10.00;;;;;21.83;46.33;100892.79;110382;1263;14002;-60
2022/09/24 01:33:13;;;;;;;;;13.00;11.00;;;;;21.83;46.19;100889.55;110307;1264;14231;-56
2022/09/24 01:35:41;;;;;;;;;14.00;13.00;;;;;21.82;46.34;100885.11;110359;1262;13160;-58
2022/09/24 01:38:09;;;;;;;;;13.00;11.00;;;;;21.83;46.24;100883.38;110436;1263;13190;-54
2022/09/24 01:40:36;;;;;;;;;10.00;10.00;;;;;21.83;46.14;100883.89;110467;1264;13256;-56
2022/09/24 01:43:04;;;;;;;;;10.00;9.00;;;;;21.81;46.44;100878.88;111149;1264;12866;-59
2022/09/24 01:45:31;;;;;;;;;10.33;10.00;;;;;21.80;46.19;100879.80;110452;1264;13332;-60
2022/09/24 01:47:58;;;;;;;;;9.33;9.33;;;;;21.82;46.22;100881.56;110455;1264;14278;-54
2022/09/24 01:50:26;;;;;;;;;9.00;9.00;;;;;21.82;46.19;100881.02;110455;1264;13693;-58
2022/09/24 01:52:54;;;;;;;;;13.33;11.00;;;;;21.82;46.19;100880.02;110455;1262;13355;-60
2022/09/24 01:55:21;;;;;;;;;9.67;9.00;;;;;21.81;46.23;100879.77;110483;1264;13303;-57
2022/09/24 01:57:49;;;;;;;;;9.00;9.00;;;;;21.80;46.27;100878.41;110423;1265;14353;-55
2022/09/24 02:00:16;;;;;;;;;10.33;10.00;;;;;21.80;46.21;100883.14;110395;1264;12903;-58
2022/09/24 02:02:44;;;;;;;;;10.33;10.00;;;;;21.80;46.25;100880.80;110442;1264;13045;-56
2022/09/24 02:05:12;;;;;;;;;11.00;10.00;;;;;21.80;46.22;100886.45;110445;1264;14121;-57
2022/09/24 02:07:39;;;;;;;;;9.00;9.00;;;;;21.79;46.29;100884.90;110471;1264;13083;-58
2022/09/24 02:10:08;;;;;;;;;9.00;9.00;;;;;21.80;46.22;100882.98;110454;1264;13167;-56
2022/09/24 02:12:36;;;;;;;;;10.00;9.00;;;;;21.79;46.30;100886.25;110458;1264;14270;-56
2022/09/24 02:15:04;;;;;;;;;9.00;9.00;;;;;21.79;46.33;100889.23;110416;1264;13771;-55
2022/09/24 02:17:31;;;;;;;;;8.33;8.33;;;;;21.80;46.41;100885.74;110441;1263;14281;-59
2022/09/24 02:19:59;;;;;;;;;9.00;7.00;;;;;21.79;46.24;100883.39;110465;1265;14418;-58
2022/09/24 02:22:26;;;;;;;;;13.00;9.50;;;;;21.79;46.23;100884.35;110490;1264;13072;-58
2022/09/24 02:24:54;;;;;;;;;7.00;7.00;;;;;21.79;46.28;100883.94;110438;1264;14396;-58
2022/09/24 02:27:22;;;;;;;;;11.00;9.67;;;;;21.79;46.31;100882.38;110437;1264;14516;-58
2022/09/24 02:29:49;;;;;;;;;9.00;9.00;;;;;21.78;46.35;100878.05;110463;1265;13066;-58
2022/09/24 02:32:17;;;;;;;;;12.33;10.00;;;;;21.78;46.37;100877.55;110445;1264;13715;-56
2022/09/24 02:34:45;;;;;;;;;10.00;9.33;;;;;21.78;46.30;100875.02;110514;1264;12829;-55
2022/09/24 02:37:12;;;;;;;;;11.67;9.33;;;;;21.79;46.39;100875.83;110475;1264;12933;-60
2022/09/24 02:39:40;;;;;;;;;10.00;9.00;;;;;21.79;46.31;100872.01;110447;1264;13558;-59
2022/09/24 02:42:08;;;;;;;;;9.00;9.00;;;;;21.78;46.27;100871.33;110445;1264;13207;-60
2022/09/24 02:44:36;;;;;;;;;11.67;9.00;;;;;21.78;46.27;100868.84;110476;1264;13898;-58
2022/09/24 02:47:03;;;;;;;;;12.33;10.67;;;;;21.77;46.30;100864.73;110484;1264;13014;-58
2022/09/24 02:49:31;;;;;;;;;10.00;10.00;;;;;21.77;46.31;100862.00;110548;1264;13227;-57
2022/09/24 02:51:58;;;;;;;;;11.00;11.00;;;;;21.78;46.28;100865.16;110451;1264;13209;-59
2022/09/24 02:54:25;;;;;;;;;9.00;9.00;;;;;21.78;46.34;100862.30;110454;1262;13344;-57
2022/09/24 02:56:53;;;;;;;;;9.33;9.00;;;;;21.78;46.36;100863.69;110390;1262;14190;-56
2022/09/24 02:59:20;;;;;;;;;10.00;9.00;;;;;21.77;46.37;100861.45;110408;1264;13538;-56
2022/09/24 03:01:48;;;;;;;;;11.00;9.00;;;;;21.78;46.38;100862.47;110414;1265;13236;-56
2022/09/24 03:04:16;;;;;;;;;9.00;7.00;;;;;21.77;46.32;100857.11;110452;1265;12176;-58
2022/09/24 03:06:43;;;;;;;;;10.67;9.33;;;;;21.78;46.34;100858.69;110475;1264;13480;-60
2022/09/24 03:09:11;;;;;;;;;10.00;9.00;;;;;21.78;46.35;100861.33;110446;1263;13352;-57
2022/09/24 03:11:39;;;;;;;;;9.00;7.00;;;;;21.77;46.47;100857.15;110521;1264;13186;-58
2022/09/24 03:14:07;;;;;;;;;10.67;9.33;;;;;21.78;46.47;100857.21;110443;1265;14578;-56
2022/09/24 03:16:34;;;;;;;;;10.33;9.00;;;;;21.77;46.43;100855.35;110463;1264;12846;-59
2022/09/24 03:19:02;;;;;;;;;7.67;7.67;;;;;21.77;46.47;100853.13;110432;1264;14901;-60
2022/09/24 03:21:29;;;;;;;;;10.00;9.00;;;;;21.76;46.52;100854.90;110438;1264;12677;-61
2022/09/24 03:23:57;;;;;;;;;7.00;7.00;;;;;21.77;46.50;100851.35;110455;1264;13510;-57
2022/09/24 03:26:24;;;;;;;;;9.00;6.00;;;;;21.77;46.54;100854.02;110454;1264;14182;-57
2022/09/24 03:28:51;;;;;;;;;9.00;7.00;;;;;21.77;46.49;100850.61;110463;1264;14373;-60
2022/09/24 03:31:19;;;;;;;;;10.67;9.00;;;;;21.78;46.49;100849.34;110467;1264;13140;-58
2022/09/24 03:33:47;;;;;;;;;7.00;7.00;;;;;21.78;46.46;100853.77;110513;1264;13387;-59
2022/09/24 03:36:15;;;;;;;;;7.00;7.00;;;;;21.78;46.56;100854.11;110447;1264;14301;-59
2022/09/24 03:38:42;;;;;;;;;7.00;7.00;;;;;21.76;46.55;100851.57;110328;1264;14174;-60
2022/09/24 03:41:10;;;;;;;;;8.33;8.33;;;;;21.77;46.53;100855.45;110367;1263;14643;-59
2022/09/24 03:43:37;;;;;;;;;9.67;7.00;;;;;21.77;46.51;100854.02;110389;1264;12981;-56
2022/09/24 03:46:05;;;;;;;;;10.00;7.67;;;;;21.77;46.60;100857.33;110358;1265;13891;-59
2022/09/24 03:48:33;;;;;;;;;7.00;7.00;;;;;21.77;46.52;100854.42;110430;1264;13211;-57
2022/09/24 03:51:00;;;;;;;;;11.00;10.00;;;;;21.76;46.62;100855.27;110459;1265;13529;-59
2022/09/24 03:53:27;;;;;;;;;9.00;8.33;;;;;21.76;46.58;100854.90;110421;1263;14195;-57
2022/09/24 03:55:55;;;;;;;;;9.33;9.00;;;;;21.77;46.58;100855.18;110438;1264;12894;-58
2022/09/24 03:58:22;;;;;;;;;7.67;7.00;;;;;21.76;46.53;100851.77;110459;1264;13087;-58
2022/09/24 04:00:50;;;;;;;;;7.00;7.00;;;;;21.75;46.50;100853.33;110445;1264;12930;-59
2022/09/24 04:03:17;;;;;;;;;9.00;9.00;;;;;21.75;46.58;100855.30;110445;1264;14559;-58
2022/09/24 04:05:45;;;;;;;;;10.00;9.00;;;;;21.75;46.55;100852.97;110356;1264;14051;-58
2022/09/24 04:08:12;;;;;;;;;10.00;10.00;;;;;21.75;46.51;100853.29;110273;1265;13892;-57
2022/09/24 04:10:40;;;;;;;;;9.00;9.00;;;;;21.75;46.46;100852.03;110349;1264;13184;-58
2022/09/24 04:13:07;;;;;;;;;7.00;7.00;;;;;21.75;46.47;100849.73;110336;1262;16580;-59
2022/09/24 04:15:35;;;;;;;;;8.67;8.67;;;;;21.76;46.52;100850.33;110458;1265;13748;-58
2022/09/24 04:18:02;;;;;;;;;7.00;7.00;;;;;21.75;46.49;100850.47;110448;1264;14419;-56
2022/09/24 04:20:30;;;;;;;;;9.00;7.00;;;;;21.75;46.49;100851.19;110427;1263;14621;-60
2022/09/24 04:22:57;;;;;;;;;9.33;7.00;;;;;21.74;46.51;100847.44;110453;1262;15395;-60
2022/09/24 04:25:25;;;;;;;;;6.00;6.00;;;;;21.75;46.48;100849.00;110464;1264;13327;-60
2022/09/24 04:27:52;;;;;;;;;6.33;6.00;;;;;21.75;46.52;100843.38;110457;1264;13997;-61
2022/09/24 04:30:19;;;;;;;;;6.00;6.00;;;;;21.75;46.51;100847.70;110449;1262;13888;-58
2022/09/24 04:32:47;;;;;;;;;6.50;6.00;;;;;21.74;46.49;100845.48;110463;1264;14337;-57
2022/09/24 04:35:14;;;;;;;;;7.00;7.00;;;;;21.75;46.56;100847.95;110466;1264;14598;-55
2022/09/24 04:37:42;;;;;;;;;5.50;5.50;;;;;21.75;46.61;100847.59;110487;1264;11233;-59
2022/09/24 04:40:11;;;;;;;;;9.00;7.00;;;;;21.74;46.66;100845.67;110408;1263;13446;-58
2022/09/24 04:42:39;;;;;;;;;6.00;6.00;;;;;21.75;46.57;100845.02;110390;1265;14669;-57
2022/09/24 04:45:06;;;;;;;;;7.67;6.00;;;;;21.73;46.66;100848.48;110460;1264;14098;-58
2022/09/24 04:47:34;;;;;;;;;9.00;9.00;;;;;21.72;46.67;100849.14;110450;1265;14671;-60
2022/09/24 04:50:02;;;;;;;;;9.00;7.00;;;;;21.72;46.66;100848.38;110450;1263;12885;-58
2022/09/24 04:52:31;;;;;;;;;6.00;6.00;;;;;21.73;46.62;100850.70;110510;1264;13063;-58
2022/09/24 04:54:59;;;;;;;;;6.00;6.00;;;;;21.72;46.81;100847.66;110457;1265;14034;-57
2022/09/24 04:57:26;;;;;;;;;8.33;7.00;;;;;21.73;46.71;100849.73;110477;1263;15434;-56
2022/09/24 04:59:53;;;;;;;;;5.67;5.67;;;;;21.75;46.56;100849.52;110461;1265;14826;-58
2022/09/24 05:02:22;;;;;;;;;6.00;6.00;;;;;21.76;46.69;100844.64;110449;1264;14523;-58
2022/09/24 05:04:50;;;;;;;;;5.00;5.00;;;;;21.82;47.59;100843.95;110479;1265;14268;-59
2022/09/24 05:07:18;;;;;;;;;6.67;6.00;;;;;21.88;48.26;100844.17;110454;1264;13016;-55
2022/09/24 05:09:45;;;;;;;;;5.00;5.00;;;;;21.90;48.70;100844.98;110403;1264;13692;-59
2022/09/24 05:12:13;;;;;;;;;5.67;5.67;;;;;21.90;48.75;100842.25;110430;1264;14254;-56
2022/09/24 05:14:40;;;;;;;;;7.00;7.00;;;;;21.90;48.68;100845.27;110422;1263;13202;-54
2022/09/24 05:17:07;;;;;;;;;6.33;5.00;;;;;21.89;48.63;100842.85;110387;1265;13125;-56
2022/09/24 05:19:35;;;;;;;;;7.67;6.67;;;;;21.87;48.52;100847.14;110461;1264;12464;-60
2022/09/24 05:22:02;;;;;;;;;5.00;5.00;;;;;21.86;48.51;100846.02;110411;1264;12775;-59
2022/09/24 05:24:30;;;;;;;;;6.00;6.00;;;;;21.84;48.56;100841.30;110348;1264;14428;-56
2022/09/24 05:27:10;;;;;;;;;6.00;6.00;;;;;21.83;48.52;100845.61;110439;1264;13905;-60
2022/09/24 05:29:37;;;;;;;;;5.00;5.00;;;;;21.84;48.60;100840.71;110441;1264;13557;-58
2022/09/24 05:32:05;;;;;;;;;5.67;5.67;;;;;21.83;48.77;100842.98;110437;1264;14676;-57
2022/09/24 05:34:33;;;;;;;;;6.00;5.00;;;;;21.83;48.81;100840.56;110437;1264;12976;-59
2022/09/24 05:37:00;;;;;;;;;5.33;5.00;;;;;21.85;48.75;100841.61;110396;1264;14994;-58
2022/09/24 05:39:28;;;;;;;;;6.00;6.00;;;;;21.85;48.72;100841.61;110412;1264;14413;-58
2022/09/24 05:41:55;;;;;;;;;6.00;6.00;;;;;21.85;48.69;100835.73;110469;1264;14736;-59
2022/09/24 05:44:22;;;;;;;;;5.33;5.33;;;;;21.85;48.78;100836.15;110381;1264;12681;-60
2022/09/24 05:46:50;;;;;;;;;5.00;5.00;;;;;21.85;48.88;100834.43;110464;1264;13234;-60
2022/09/24 05:49:18;;;;;;;;;3.00;3.00;;;;;21.87;48.85;100838.79;110284;1264;12840;-57
2022/09/24 05:51:45;;;;;;;;;5.33;5.00;;;;;21.88;49.00;100834.55;110296;1264;12934;-58
2022/09/24 05:54:12;;;;;;;;;4.33;4.33;;;;;21.88;49.06;100838.89;110421;1262;13179;-58
2022/09/24 05:56:40;;;;;;;;;5.67;5.33;;;;;21.89;49.11;100834.33;110401;1264;12999;-57
2022/09/24 05:59:07;;;;;;;;;6.00;6.00;;;;;21.92;48.97;100834.59;110416;1264;13736;-56
2022/09/24 06:01:35;;;;;;;;;6.00;5.00;;;;;21.92;49.10;100837.63;110487;1265;13174;-58
2022/09/24 06:04:02;;;;;;;;;5.67;5.33;;;;;21.93;49.35;100835.20;110467;1264;14347;-61
2022/09/24 06:06:30;;;;;;;;;7.00;6.00;;;;;21.97;49.60;100831.48;110439;1264;14064;-58
2022/09/24 06:08:57;;;;;;;;;5.67;5.33;;;;;22.00;49.96;100834.33;110417;1264;13639;-60
2022/09/24 06:11:26;;;;;;;;;5.00;5.00;;;;;22.03;49.84;100836.73;110437;1264;13263;-57
2022/09/24 06:13:54;;;;;;;;;5.33;5.00;;;;;22.05;50.03;100832.85;110451;1264;13967;-58
2022/09/24 06:16:21;;;;;;;;;5.00;3.00;;;;;22.03;50.10;100829.80;110489;1264;12704;-58
2022/09/24 06:18:49;;;;;;;;;6.00;6.00;;;;;22.03;49.94;100832.77;110490;1264;14581;-59
2022/09/24 06:21:17;;;;;;;;;9.00;8.33;;;;;22.03;50.01;100832.74;110449;1265;14366;-57
2022/09/24 06:23:45;;;;;;;;;6.00;6.00;;;;;21.94;50.09;100835.23;110461;1263;14216;-56
2022/09/24 06:26:12;;;;;;;;;6.00;6.00;;;;;21.93;50.22;100835.23;110446;1264;14167;-58
2022/09/24 06:28:40;;;;;;;;;6.00;6.00;;;;;21.93;50.36;100830.48;110486;1265;12010;-60
2022/09/24 06:31:08;;;;;;;;;6.00;6.00;;;;;21.92;50.40;100832.00;110407;1265;13629;-59
2022/09/24 06:33:36;;;;;;;;;6.00;5.33;;;;;21.93;50.52;100830.63;110465;1262;14235;-61
2022/09/24 06:36:04;;;;;;;;;6.00;5.00;;;;;21.94;50.30;100832.41;110347;1264;13072;-59
2022/09/24 06:38:31;;;;;;;;;5.50;5.50;;;;;21.97;50.51;100828.98;110400;1263;13363;-54
2022/09/24 06:40:59;;;;;;;;;5.00;3.00;;;;;21.97;50.97;100828.69;110431;1264;13170;-56
2022/09/24 06:43:26;;;;;;;;;3.67;3.67;;;;;22.03;51.28;100833.04;110496;1264;12890;-57
2022/09/24 06:45:54;;;;;;;;;5.33;5.00;;;;;22.07;51.30;100835.84;110443;1264;13487;-59
2022/09/24 06:48:22;;;;;;;;;4.33;4.33;;;;;22.06;51.12;100836.58;110454;1262;13083;-59
2022/09/24 06:50:50;;;;;;;;;5.67;5.33;;;;;22.02;51.11;100836.00;110449;1264;14525;-55
2022/09/24 06:53:18;;;;;;;;;5.00;5.00;;;;;22.01;51.39;100830.99;110415;1264;13461;-60
2022/09/24 06:55:45;;;;;;;;;6.00;3.00;;;;;22.01;51.63;100833.30;110447;1264;13204;-57
2022/09/24 06:58:13;;;;;;;;;5.00;5.00;;;;;22.02;51.57;100830.70;110486;1263;13356;-58
2022/09/24 07:00:40;;;;;;;;;3.67;3.00;;;;;22.06;51.68;100834.56;110441;1262;13976;-59
2022/09/24 07:03:08;;;;;;;;;5.33;5.33;;;;;22.09;51.69;100833.05;110445;1264;12882;-58
2022/09/24 07:05:35;;;;;;;;;5.00;5.00;;;;;22.08;51.63;100832.09;110444;1264;14642;-58
2022/09/24 07:08:03;;;;;;;;;10.00;8.33;;;;;22.09;51.69;100833.52;110489;1264;14179;-56
2022/09/24 07:10:31;;;;;;;;;5.00;5.00;;;;;22.22;51.39;100833.56;110446;1264;12881;-58
2022/09/24 07:12:58;;;;;;;;;5.33;5.00;;;;;22.41;50.92;100835.34;110393;1264;14082;-57
2022/09/24 07:15:25;;;;;;;;;5.67;5.67;;;;;22.47;50.83;100837.83;110449;1264;13847;-62
2022/09/24 07:17:53;;;;;;;;;5.33;5.00;;;;;22.44;50.78;100838.57;110454;1265;14232;-61
2022/09/24 07:20:20;;;;;;;;;4.67;3.67;;;;;22.34;51.00;100843.78;110487;1264;14041;-59
2022/09/24 07:22:47;;;;;;;;;5.00;3.00;;;;;22.24;51.33;100839.52;110471;1264;13187;-61
2022/09/24 07:25:15;;;;;;;;;5.00;5.00;;;;;22.17;51.59;100845.31;110465;1264;14147;-62
2022/09/24 07:27:42;;;;;;;;;3.67;3.67;;;;;22.14;51.90;100850.52;110450;1264;13201;-58
2022/09/24 07:30:10;;;;;;;;;3.00;3.00;;;;;22.16;51.94;100855.08;110443;1262;14485;-60
2022/09/24 07:32:38;;;;;;;;;5.00;5.00;;;;;22.14;51.93;100855.98;110473;1264;14032;-59
2022/09/24 07:35:05;;;;;;;;;4.33;4.33;;;;;22.12;51.93;100851.87;110091;1264;291670;-61
2022/09/24 07:37:32;;;;;;;;;3.00;3.00;;;;;22.13;51.89;100853.23;110438;1265;11671;-58
2022/09/24 07:40:00;;;;;;;;;6.00;5.00;;;;;22.16;51.77;100851.77;110307;1265;14530;-59
2022/09/24 07:42:27;;;;;;;;;3.67;3.00;;;;;22.20;51.58;100850.58;110372;1265;14253;-60
2022/09/24 07:44:55;;;;;;;;;5.00;5.00;;;;;22.19;51.36;100856.36;110461;1264;13961;-61
2022/09/24 07:47:23;;;;;;;;;3.00;3.00;;;;;22.15;51.46;100857.34;110478;1264;13568;-61
2022/09/24 07:49:50;;;;;;;;;5.00;3.00;;;;;22.12;51.65;100859.48;110469;1264;18136;-59
2022/09/24 07:52:18;;;;;;;;;3.00;3.00;;;;;22.12;51.58;100859.10;110445;1264;13367;-59
2022/09/24 07:54:45;;;;;;;;;3.00;3.00;;;;;22.16;51.67;100860.29;110448;1262;11504;-59
2022/09/24 07:57:13;;;;;;;;;3.00;3.00;;;;;22.17;51.31;100861.52;110331;1263;13539;-60
2022/09/24 07:59:40;;;;;;;;;5.00;5.00;;;;;22.17;51.44;100861.39;110421;1264;12945;-60
2022/09/24 08:02:08;;;;;;;;;3.00;3.00;;;;;22.13;51.75;100868.65;110394;1264;18055;-60
2022/09/24 08:04:35;;;;;;;;;3.00;3.00;;;;;22.11;51.72;100869.81;110525;1264;13310;-62
2022/09/24 08:07:03;;;;;;;;;5.00;5.00;;;;;22.08;51.52;100867.48;110407;1264;13081;-60
2022/09/24 08:09:31;;;;;;;;;5.00;3.00;;;;;22.07;51.37;100867.03;110473;1264;13418;-64
2022/09/24 08:11:59;;;;;;;;;5.67;5.00;;;;;22.07;51.24;100869.59;110505;1264;13215;-60
2022/09/24 08:14:26;;;;;;;;;6.00;6.00;;;;;22.10;51.26;100869.37;110406;1265;15969;-62
2022/09/24 08:16:54;;;;;;;;;5.00;5.00;;;;;22.13;51.08;100867.97;110383;1264;13518;-60
2022/09/24 08:19:21;;;;;;;;;5.00;5.00;;;;;22.07;50.98;100873.89;110456;1264;13301;-60
2022/09/24 08:21:49;;;;;;;;;6.00;6.00;;;;;22.00;51.06;100870.39;110446;1262;13306;-61
2022/09/24 08:24:16;;;;;;;;;5.00;5.00;;;;;21.97;51.16;100869.63;110460;1262;13286;-60
2022/09/24 08:26:43;;;;;;;;;5.33;5.00;;;;;21.96;51.15;100869.64;110448;1265;13098;-59
2022/09/24 08:29:11;;;;;;;;;8.33;5.00;;;;;21.94;51.01;100869.98;110477;1264;13502;-59
2022/09/24 08:31:40;;;;;;;;;3.00;3.00;;;;;21.94;50.91;100875.23;110475;1264;13138;-60
2022/09/24 08:34:08;;;;;;;;;5.00;5.00;;;;;21.93;50.85;100872.84;110461;1262;12715;-60
2022/09/24 08:36:35;;;;;;;;;3.00;3.00;;;;;21.92;50.71;100869.14;110400;1263;12851;-60
2022/09/24 08:39:03;;;;;;;;;3.00;3.00;;;;;21.92;50.62;100871.29;110400;1264;16938;-60
2022/09/24 08:41:31;;;;;;;;;5.00;4.00;;;;;21.92;50.58;100874.77;110460;1263;13387;-59
2022/09/24 08:43:59;;;;;;;;;3.00;3.00;;;;;21.92;50.40;100873.55;110409;1264;13075;-59
2022/09/24 08:49:11;;;;;;;;;5.00;5.00;;;;;21.91;50.29;100876.18;110364;1264;13077;-59
2022/09/24 08:51:39;;;;;;;;;6.00;6.00;;;;;21.91;50.19;100881.55;110353;1263;13170;-59
2022/09/24 08:54:07;;;;;;;;;6.00;5.00;;;;;21.90;50.14;100877.39;110422;1264;13073;-59
2022/09/24 08:56:34;;;;;;;;;5.00;5.00;;;;;21.90;50.03;100876.84;110562;1262;14623;-57
2022/09/24 08:59:02;;;;;;;;;6.00;6.00;;;;;21.90;49.86;100877.18;110483;1262;13096;-57
2022/09/24 09:01:29;;;;;;;;;6.00;5.00;;;;;21.91;49.83;100876.73;110484;1264;13183;-58
2022/09/24 09:03:57;;;;;;;;;5.00;5.00;;;;;21.91;49.75;100877.89;110455;1264;12851;-60
2022/09/24 09:06:24;;;;;;;;;5.00;5.00;;;;;21.90;49.67;100876.52;110408;1264;13200;-59
2022/09/24 09:08:51;;;;;;;;;7.00;6.00;;;;;21.90;49.55;100874.66;110421;1264;13638;-58
2022/09/24 09:11:19;;;;;;;;;5.00;5.00;;;;;21.90;49.43;100873.91;110442;1264;13214;-60
2022/09/24 09:13:46;;;;;;;;;6.00;5.00;;;;;21.92;49.40;100871.58;110516;1264;13065;-61
2022/09/24 09:16:13;;;;;;;;;5.33;5.00;;;;;21.93;49.33;100871.09;110464;1263;13193;-62
2022/09/24 09:18:41;;;;;;;;;5.00;5.00;;;;;21.92;49.29;100873.34;110464;1264;13244;-62
2022/09/24 09:21:09;;;;;;;;;5.00;5.00;;;;;21.93;49.29;100869.27;110465;1264;13301;-59
2022/09/24 09:23:36;;;;;;;;;4.33;4.33;;;;;21.93;49.19;100865.63;110495;1264;13032;-60
2022/09/24 09:26:05;;;;;;;;;5.00;5.00;;;;;21.92;49.16;100867.35;110451;1262;13231;-61
2022/09/24 09:28:33;;;;;;;;;5.00;5.00;;;;;21.94;49.08;100864.44;110494;1264;12737;-61
2022/09/24 09:31:03;;;;;;;;;6.00;5.33;;;;;21.93;49.02;100867.55;110443;1264;16610;-59
2022/09/24 09:33:30;;;;;;;;;5.33;5.00;;;;;21.93;48.96;100866.27;110492;1264;13475;-59
2022/09/24 09:35:58;;;;;;;;;7.00;6.00;;;;;21.93;48.80;100866.85;110456;1264;13222;-60
2022/09/24 09:38:25;;;;;;;;;5.67;5.00;;;;;21.95;48.75;100868.62;110391;1264;13082;-59
2022/09/24 09:40:52;;;;;;;;;6.00;6.00;;;;;21.98;48.54;100867.23;110491;1264;12689;-59
2022/09/24 09:43:20;;;;;;;;;7.00;6.00;;;;;21.99;48.49;100867.59;110418;1264;13530;-58
2022/09/24 09:45:47;;;;;;;;;6.00;6.00;;;;;21.99;48.43;100866.88;110428;1263;12956;-58
2022/09/24 09:48:15;;;;;;;;;7.00;6.00;;;;;22.00;48.34;100868.38;110477;1262;12974;-59
2022/09/24 09:50:43;;;;;;;;;5.00;5.00;;;;;22.01;48.23;100864.86;110439;1262;12669;-62
2022/09/24 09:53:10;;;;;;;;;7.00;7.00;;;;;22.02;48.28;100862.84;110526;1262;13373;-61
2022/09/24 09:55:37;;;;;;;;;9.00;8.33;;;;;22.04;48.21;100864.41;110458;1264;12698;-60
2022/09/24 09:58:05;;;;;;;;;5.00;3.00;;;;;22.04;48.17;100864.63;110441;1264;13030;-58
2022/09/24 10:00:32;;;;;;;;;6.00;6.00;;;;;22.05;48.20;100859.81;110443;1264;12286;-55
2022/09/24 10:03:00;;;;;;;;;7.00;6.00;;;;;22.07;48.13;100864.69;110432;1262;13860;-59
2022/09/24 10:05:27;;;;;;;;;5.00;5.00;;;;;22.08;48.09;100863.06;110336;1263;12853;-56
2022/09/24 10:07:56;;;;;;;;;5.00;5.00;;;;;22.08;48.06;100859.75;110480;1264;13092;-58
2022/09/24 10:10:24;;;;;;;;;5.00;5.00;;;;;22.08;48.00;100858.15;110495;1264;13034;-63
2022/09/24 10:12:51;;;;;;;;;3.67;3.67;;;;;22.08;48.01;100857.58;110445;1263;13151;-60
2022/09/24 10:15:19;;;;;;;;;5.33;5.00;;;;;22.09;47.96;100859.08;110476;1264;12262;-60
2022/09/24 10:17:46;;;;;;;;;5.33;5.33;;;;;22.08;47.94;100863.58;110431;1262;13582;-61
2022/09/24 10:20:14;;;;;;;;;5.00;5.00;;;;;22.09;47.84;100865.12;110464;1264;13382;-60
2022/09/24 10:22:41;;;;;;;;;5.00;5.00;;;;;22.09;47.83;100865.08;110488;1264;12033;-60
2022/09/24 10:25:09;;;;;;;;;5.33;5.33;;;;;22.09;47.90;100863.89;110448;1263;13165;-59
2022/09/24 10:27:36;;;;;;;;;6.00;5.00;;;;;22.09;47.87;100863.16;110442;1262;13213;-59
2022/09/24 10:32:49;;;;;;;;;7.00;6.00;;;;;22.08;47.78;100857.73;110460;1263;13038;-60
2022/09/24 10:35:16;;;;;;;;;4.33;4.33;;;;;22.07;47.64;100857.30;110464;1263;13190;-61
2022/09/24 10:37:44;;;;;;;;;3.67;3.67;;;;;22.08;47.70;100859.33;110464;1264;12712;-60
2022/09/24 10:40:11;;;;;;;;;6.00;5.00;;;;;22.06;47.70;100852.71;110387;1264;13359;-61
2022/09/24 10:42:38;;;;;;;;;5.00;5.00;;;;;22.05;47.61;100850.50;110513;1262;13257;-62
2022/09/24 10:45:06;;;;;;;;;5.00;5.00;;;;;22.05;47.63;100852.17;110421;1262;12935;-60
2022/09/24 10:47:33;;;;;;;;;5.00;5.00;;;;;22.04;47.59;100848.54;110472;1263;13164;-60
2022/09/24 10:50:01;;;;;;;;;3.00;3.00;;;;;22.03;47.51;100847.44;110489;1264;12975;-61
2022/09/24 10:52:28;;;;;;;;;3.00;3.00;;;;;22.04;47.57;100846.30;110495;1264;12764;-60
2022/09/24 10:54:56;;;;;;;;;3.00;3.00;;;;;22.04;47.54;100845.90;110432;1264;13188;-62
2022/09/24 10:57:24;;;;;;;;;3.67;3.67;;;;;22.05;47.44;100844.11;110454;1264;13059;-60
2022/09/24 10:59:51;;;;;;;;;6.00;6.00;;;;;22.05;47.48;100842.81;110496;1264;13255;-61
2022/09/24 11:02:19;;;;;;;;;6.00;5.00;;;;;22.05;47.52;100836.47;110445;1264;13219;-61
2022/09/24 11:04:46;;;;;;;;;5.33;5.00;;;;;22.04;47.41;100835.15;110495;1265;13103;-61
2022/09/24 11:07:14;;;;;;;;;5.00;5.00;;;;;22.03;47.34;100838.16;110475;1265;13983;-60
2022/09/24 11:09:42;;;;;;;;;5.00;5.00;;;;;22.03;47.33;100834.75;110464;1264;13191;-62
2022/09/24 11:12:10;;;;;;;;;5.00;5.00;;;;;22.03;47.37;100836.15;110455;1265;12911;-62
2022/09/24 11:14:38;;;;;;;;;5.50;5.50;;;;;22.08;47.52;100837.91;110423;1262;12865;-62
2022/09/24 11:17:05;;;;;;;;;7.00;7.00;;;;;22.08;47.45;100832.84;110371;1263;13207;-61
2022/09/24 11:19:33;;;;;;;;;10.00;9.00;;;;;22.03;47.37;100829.27;110574;1264;12936;-62
2022/09/24 11:22:00;;;;;;;;;9.50;9.00;;;;;21.96;46.82;100830.35;110419;1263;13042;-61